createdAt,value
2022-11-03T00:02:01.245Z,8.20
2022-11-03T00:04:31.472Z,8.26
2022-11-03T00:07:01.918Z,8.38
2022-11-03T00:09:33.959Z,8.32
2022-11-03T00:12:04.491Z,8.23
2022-11-03T00:14:36.051Z,8.19
2022-11-03T00:17:06.390Z,8.18
2022-11-03T00:19:36.375Z,8.14
2022-11-03T00:22:06.679Z,8.09
2022-11-03T00:24:36.763Z,8.01
2022-11-03T00:27:07.015Z,8.01
2022-11-03T00:29:38.800Z,7.95
2022-11-03T00:32:09.281Z,7.87
2022-11-03T00:34:40.807Z,7.81
2022-11-03T00:37:11.239Z,7.76
2022-11-03T00:39:41.275Z,7.67
2022-11-03T00:42:11.531Z,7.59
2022-11-03T00:44:42.861Z,7.59
2022-11-03T00:47:13.229Z,7.53
2022-11-03T00:49:45.861Z,7.53
2022-11-03T00:52:16.176Z,7.44
2022-11-03T00:54:48.842Z,7.41
2022-11-03T00:57:20.589Z,7.33
2022-11-03T00:59:51.973Z,7.27
2022-11-03T01:02:22.297Z,7.27
2022-11-03T01:05:10.380Z,7.23
2022-11-03T01:07:40.719Z,7.16
2022-11-03T01:10:12.050Z,7.13
2022-11-03T01:12:43.609Z,7.13
2022-11-03T01:15:15.322Z,7.02
2022-11-03T01:17:45.693Z,6.96
2022-11-03T01:20:15.752Z,6.91
2022-11-03T01:22:46.199Z,6.84
2022-11-03T01:25:17.718Z,6.77
2022-11-03T01:27:48.068Z,6.69
2022-11-03T01:30:19.649Z,6.58
2022-11-03T01:32:50.092Z,6.54
2022-11-03T01:35:20.053Z,6.52
2022-11-03T01:37:50.599Z,6.47
2022-11-03T01:40:21.497Z,6.41
2022-11-03T01:42:52.189Z,6.45
2022-11-03T01:45:24.382Z,6.47
2022-11-03T01:47:54.942Z,6.47
2022-11-03T01:50:25.619Z,6.41
2022-11-03T01:53:00.291Z,6.45
2022-11-03T01:55:36.059Z,6.55
2022-11-03T01:58:11.361Z,6.61
2022-11-03T02:00:45.898Z,6.60
2022-11-03T02:03:18.571Z,6.64
2022-11-03T02:05:50.386Z,6.65
2022-11-03T02:08:25.390Z,6.57
2022-11-03T02:10:55.521Z,6.56
2022-11-03T02:13:27.901Z,6.48
2022-11-03T02:16:01.233Z,6.38
2022-11-03T02:18:34.639Z,6.22
2022-11-03T02:21:13.853Z,6.11
2022-11-03T02:23:50.571Z,6.08
2022-11-03T02:26:22.272Z,6.05
2022-11-03T02:31:32.010Z,6.04
2022-11-03T02:34:08.882Z,5.93
2022-11-03T02:36:43.488Z,5.76
2022-11-03T02:39:20.151Z,5.69
2022-11-03T02:41:54.419Z,5.64
2022-11-03T02:44:27.391Z,5.64
2022-11-03T02:47:00.909Z,5.61
2022-11-03T02:49:31.583Z,5.55
2022-11-03T02:52:02.950Z,5.56
2022-11-03T02:54:38.851Z,5.82
2022-11-03T02:57:16.019Z,5.96
2022-11-03T02:59:51.891Z,6.07
2022-11-03T03:02:32.796Z,6.02
2022-11-03T03:05:08.131Z,6.13
2022-11-03T03:07:42.131Z,6.21
2022-11-03T03:10:16.313Z,6.23
2022-11-03T03:12:50.791Z,6.28
2022-11-03T03:15:25.519Z,6.30
2022-11-03T03:18:03.792Z,6.25
2022-11-03T03:20:39.497Z,6.21
2022-11-03T03:23:18.347Z,5.98
2022-11-03T03:25:53.850Z,5.88
2022-11-03T03:28:28.080Z,5.82
2022-11-03T03:31:03.501Z,5.84
2022-11-03T03:33:36.149Z,6.00
2022-11-03T03:36:11.062Z,6.24
2022-11-03T03:38:46.537Z,6.51
2022-11-03T03:41:22.362Z,6.53
2022-11-03T03:43:57.230Z,6.64
2022-11-03T03:46:34.252Z,6.71
2022-11-03T03:49:04.741Z,6.71
2022-11-03T03:51:36.580Z,6.70
2022-11-03T03:54:06.713Z,6.66
2022-11-03T03:56:43.981Z,6.65
2022-11-03T03:59:15.772Z,6.61
2022-11-03T04:01:47.718Z,6.64
2022-11-03T04:04:18.052Z,6.55
2022-11-03T04:06:48.460Z,6.55
2022-11-03T04:09:18.461Z,6.55
2022-11-03T04:12:05.921Z,6.50
2022-11-03T04:14:54.514Z,6.45
2022-11-03T04:17:42.701Z,6.47
2022-11-03T04:20:33.608Z,6.50
2022-11-03T04:23:04.040Z,6.47
2022-11-03T04:25:34.191Z,6.46
2022-11-03T04:28:07.683Z,6.41
2022-11-03T04:30:39.519Z,6.42
2022-11-03T04:33:16.551Z,6.43
2022-11-03T04:35:46.971Z,6.46
2022-11-03T04:38:25.339Z,6.46
2022-11-03T04:40:57.422Z,6.36
2022-11-03T04:43:34.915Z,6.20
2022-11-03T04:46:06.969Z,6.00
2022-11-03T04:48:38.072Z,5.81
2022-11-03T04:51:16.438Z,5.67
2022-11-03T04:53:54.811Z,5.56
2022-11-03T04:56:26.949Z,5.46
2022-11-03T04:58:59.631Z,5.37
2022-11-03T05:01:31.761Z,5.32
2022-11-03T05:04:02.306Z,4.94
2022-11-03T05:06:32.712Z,5.02
2022-11-03T05:09:09.381Z,5.00
2022-11-03T05:11:41.530Z,4.95
2022-11-03T05:14:18.991Z,4.89
2022-11-03T05:16:53.979Z,4.88
2022-11-03T05:19:29.032Z,4.72
2022-11-03T05:22:01.954Z,4.71
2022-11-03T05:24:34.342Z,4.68
2022-11-03T05:27:04.612Z,4.62
2022-11-03T05:29:38.500Z,4.54
2022-11-03T05:32:16.562Z,4.48
2022-11-03T05:34:51.519Z,4.40
2022-11-03T05:37:30.660Z,4.34
2022-11-03T05:40:02.880Z,4.18
2022-11-03T05:42:36.536Z,4.20
2022-11-03T05:45:16.753Z,4.17
2022-11-03T05:47:49.311Z,4.02
2022-11-03T05:50:25.529Z,3.86
2022-11-03T05:53:14.359Z,3.79
2022-11-03T05:55:45.860Z,3.76
2022-11-03T05:58:24.028Z,3.67
2022-11-03T06:00:58.012Z,3.61
2022-11-03T06:03:31.677Z,3.69
2022-11-03T06:06:03.622Z,3.77
2022-11-03T06:08:40.182Z,3.83
2022-11-03T06:11:24.024Z,3.89
2022-11-03T06:13:54.781Z,4.04
2022-11-03T06:16:40.409Z,4.14
2022-11-03T06:19:28.635Z,4.16
2022-11-03T06:22:15.467Z,4.20
2022-11-03T06:24:45.907Z,4.24
2022-11-03T06:27:18.289Z,4.23
2022-11-03T06:29:52.489Z,4.21
2022-11-03T06:32:22.901Z,4.26
2022-11-03T06:34:56.850Z,4.29
2022-11-03T06:37:32.769Z,4.26
2022-11-03T06:40:24.671Z,4.27
2022-11-03T06:42:55.890Z,4.26
2022-11-03T06:45:28.283Z,4.22
2022-11-03T06:47:59.612Z,4.15
2022-11-03T06:50:33.915Z,4.24
2022-11-03T06:53:06.399Z,4.26
2022-11-03T06:55:39.696Z,4.42
2022-11-03T06:58:22.015Z,4.50
2022-11-03T07:00:52.448Z,4.57
2022-11-03T07:03:30.965Z,4.63
2022-11-03T07:06:13.327Z,4.87
2022-11-03T07:08:46.221Z,5.07
2022-11-03T07:11:20.616Z,5.16
2022-11-03T07:13:56.191Z,5.29
2022-11-03T07:16:34.097Z,5.37
2022-11-03T07:19:07.876Z,5.53
2022-11-03T07:21:43.667Z,5.64
2022-11-03T07:24:20.770Z,5.84
2022-11-03T07:26:55.754Z,5.94
2022-11-03T07:29:30.855Z,6.00
2022-11-03T07:32:01.913Z,6.09
2022-11-03T07:34:35.495Z,6.18
2022-11-03T07:37:07.173Z,6.17
2022-11-03T07:39:40.284Z,6.41
2022-11-03T07:42:17.346Z,7.26
2022-11-03T07:44:49.756Z,7.76
2022-11-03T07:47:26.058Z,8.34
2022-11-03T07:49:57.896Z,8.59
2022-11-03T07:52:29.966Z,8.27
2022-11-03T07:55:02.242Z,8.54
2022-11-03T07:57:33.186Z,8.86
2022-11-03T08:00:10.350Z,8.72
2022-11-03T08:02:49.419Z,8.54
2022-11-03T08:07:56.245Z,9.20
2022-11-03T08:10:26.774Z,9.34
2022-11-03T08:12:56.997Z,10.41
2022-11-03T08:15:27.505Z,11.33
2022-11-03T08:17:57.662Z,11.87
2022-11-03T08:20:28.215Z,11.81
2022-11-03T08:23:24.021Z,12.48
2022-11-03T08:25:50.948Z,13.08
2022-11-03T08:28:22.885Z,13.61
2022-11-03T08:30:53.507Z,13.47
2022-11-03T08:33:26.726Z,14.01
2022-11-03T08:35:57.626Z,13.87
2022-11-03T08:38:29.564Z,13.86
2022-11-03T08:41:00.446Z,12.92
2022-11-03T08:43:30.785Z,12.50
2022-11-03T08:46:08.140Z,12.70
2022-11-03T08:48:43.135Z,13.67
2022-11-03T08:51:14.387Z,13.55
2022-11-03T08:53:46.644Z,12.56
2022-11-03T08:56:20.479Z,12.32
2022-11-03T08:58:52.768Z,12.18
2022-11-03T09:01:23.401Z,12.39
2022-11-03T09:03:53.703Z,12.63
2022-11-03T09:06:24.525Z,12.46
2022-11-03T09:11:47.356Z,13.11
2022-11-03T09:14:17.622Z,12.89
2022-11-03T09:16:48.481Z,12.59
2022-11-03T09:19:19.507Z,12.70
2022-11-03T09:21:50.025Z,12.83
2022-11-03T09:24:21.558Z,12.83
2022-11-03T09:26:51.989Z,12.54
2022-11-03T09:29:22.307Z,12.45
2022-11-03T09:31:52.837Z,12.11
2022-11-03T09:34:22.937Z,11.99
2022-11-03T09:36:53.539Z,11.93
2022-11-03T09:39:25.093Z,12.20
2022-11-03T09:41:59.351Z,12.23
2022-11-03T09:44:29.776Z,12.24
2022-11-03T09:47:02.334Z,12.31
2022-11-03T09:49:35.242Z,12.50
2022-11-03T09:52:06.793Z,12.31
2022-11-03T09:54:38.184Z,12.51
2022-11-03T09:57:14.122Z,12.65
2022-11-03T09:59:47.035Z,12.65
2022-11-03T10:02:24.436Z,13.27
2022-11-03T10:04:57.876Z,14.21
2022-11-03T10:07:31.252Z,14.50
2022-11-03T10:10:03.794Z,14.74
2022-11-03T10:12:38.132Z,14.14
2022-11-03T10:15:15.674Z,13.15
2022-11-03T10:17:47.109Z,12.59
2022-11-03T10:20:19.716Z,12.62
2022-11-03T10:22:53.997Z,12.50
2022-11-03T10:25:39.249Z,12.35
2022-11-03T10:28:19.086Z,12.61
2022-11-03T10:31:11.375Z,12.62
2022-11-03T10:33:52.431Z,12.27
2022-11-03T10:36:27.553Z,12.23
2022-11-03T10:38:58.164Z,12.11
2022-11-03T10:41:31.026Z,12.06
2022-11-03T10:44:05.167Z,11.95
2022-11-03T10:46:51.647Z,11.91
2022-11-03T10:49:22.394Z,11.85
2022-11-03T10:51:53.913Z,11.89
2022-11-03T10:54:26.109Z,11.83
2022-11-03T10:56:57.819Z,11.71
2022-11-03T10:59:33.251Z,11.65
2022-11-03T11:02:04.135Z,11.53
2022-11-03T11:04:34.516Z,11.48
2022-11-03T11:07:05.260Z,11.33
2022-11-03T11:09:36.646Z,11.38
2022-11-03T11:12:17.191Z,11.35
2022-11-03T11:15:01.437Z,11.36
2022-11-03T11:17:46.602Z,11.33
2022-11-03T11:20:41.738Z,11.22
2022-11-03T11:23:53.347Z,11.09
2022-11-03T11:26:33.678Z,10.97
2022-11-03T11:29:45.407Z,10.96
2022-11-03T11:32:49.577Z,10.91
2022-11-03T11:36:06.368Z,10.89
2022-11-03T11:39:11.196Z,10.87
2022-11-03T11:42:13.945Z,10.78
2022-11-03T11:45:07.192Z,10.77
2022-11-03T11:47:51.382Z,10.77
2022-11-03T11:50:41.049Z,10.82
2022-11-03T11:53:20.718Z,10.84
2022-11-03T11:55:56.708Z,10.91
2022-11-03T11:58:31.933Z,10.88
2022-11-03T12:01:04.357Z,10.79
2022-11-03T12:03:39.582Z,10.79
2022-11-03T12:06:14.055Z,10.91
2022-11-03T12:08:45.335Z,11.05
2022-11-03T12:11:15.789Z,11.09
2022-11-03T12:13:48.923Z,11.20
2022-11-03T12:16:33.395Z,11.31
2022-11-03T12:19:49.185Z,11.33
2022-11-03T12:22:44.765Z,11.31
2022-11-03T12:25:36.606Z,11.34
2022-11-03T12:28:07.346Z,11.30
2022-11-03T12:30:40.045Z,11.27
2022-11-03T12:33:11.215Z,11.25
2022-11-03T12:35:41.344Z,11.22
2022-11-03T12:38:13.299Z,11.20
2022-11-03T12:40:43.307Z,11.22
2022-11-03T12:43:14.077Z,11.21
2022-11-03T12:45:44.363Z,11.18
2022-11-03T12:48:15.097Z,11.21
2022-11-03T12:50:45.145Z,11.24
2022-11-03T12:53:17.048Z,11.20
2022-11-03T12:55:47.420Z,11.18
2022-11-03T12:58:18.386Z,11.20
2022-11-03T13:00:53.846Z,11.12
2022-11-03T13:03:25.676Z,11.13
2022-11-03T13:05:55.944Z,11.15
2022-11-03T13:08:28.254Z,11.18
2022-11-03T13:10:59.178Z,11.16
2022-11-03T13:13:29.527Z,11.11
2022-11-03T13:15:59.810Z,11.11
2022-11-03T13:18:30.877Z,11.11
2022-11-03T13:21:01.922Z,11.09
2022-11-03T13:23:33.319Z,11.05
2022-11-03T13:26:03.393Z,11.03
2022-11-03T13:28:33.850Z,10.98
2022-11-03T13:31:03.989Z,10.91
2022-11-03T13:33:34.497Z,10.88
2022-11-03T13:36:05.533Z,10.84
2022-11-03T13:38:37.215Z,10.79
2022-11-03T13:41:09.170Z,10.77
2022-11-03T13:43:40.264Z,10.74
2022-11-03T13:46:10.415Z,10.73
2022-11-03T13:51:31.673Z,10.68
2022-11-03T13:59:44.166Z,10.55
2022-11-03T14:05:07.110Z,10.44
2022-11-03T14:07:38.712Z,10.41
2022-11-03T14:10:11.577Z,10.31
2022-11-03T14:12:40.668Z,10.27
2022-11-03T14:15:13.429Z,10.15
2022-11-03T14:17:43.793Z,10.03
2022-11-03T14:20:15.274Z,9.95
2022-11-03T14:22:45.435Z,9.87
2022-11-03T14:25:21.231Z,9.69
2022-11-03T14:27:51.422Z,9.57
2022-11-03T14:30:22.275Z,9.46
2022-11-03T14:32:55.463Z,9.30
2022-11-03T14:35:29.618Z,9.15
2022-11-03T14:37:59.719Z,8.93
2022-11-03T14:40:49.449Z,8.67
2022-11-03T14:43:19.419Z,8.55
2022-11-03T14:45:49.866Z,8.33
2022-11-03T14:48:19.839Z,8.29
2022-11-03T14:50:50.320Z,8.34
2022-11-03T14:53:21.119Z,8.44
2022-11-03T14:55:53.065Z,8.56
2022-11-03T14:58:22.808Z,8.57
2022-11-03T15:00:53.495Z,8.56
2022-11-03T15:03:23.757Z,8.55
2022-11-03T15:05:55.809Z,8.49
2022-11-03T15:08:26.217Z,8.47
2022-11-03T15:10:58.337Z,8.43
2022-11-03T15:13:28.527Z,8.35
2022-11-03T15:15:59.189Z,8.07
2022-11-03T15:18:29.420Z,7.76
2022-11-03T15:20:59.748Z,7.49
2022-11-03T15:26:22.670Z,7.20
2022-11-03T15:28:53.218Z,6.93
2022-11-03T15:31:25.992Z,6.67
2022-11-03T15:33:55.994Z,6.59
2022-11-03T15:36:28.050Z,6.43
2022-11-03T15:38:58.820Z,6.37
2022-11-03T15:41:30.610Z,6.22
2022-11-03T15:44:00.878Z,6.11
2022-11-03T15:46:32.100Z,6.02
2022-11-03T15:49:02.452Z,5.96
2022-11-03T15:51:32.799Z,5.95
2022-11-03T15:54:04.360Z,5.90
2022-11-03T15:56:39.334Z,5.68
2022-11-03T15:59:14.849Z,5.55
2022-11-03T16:02:03.458Z,5.49
2022-11-03T16:04:48.502Z,5.45
2022-11-03T16:07:20.102Z,5.35
2022-11-03T16:09:50.951Z,5.33
2022-11-03T16:12:24.500Z,5.17
2022-11-03T16:14:55.611Z,4.94
2022-11-03T16:17:26.791Z,4.85
2022-11-03T16:19:56.718Z,4.82
2022-11-03T16:22:26.983Z,4.88
2022-11-03T16:24:57.119Z,4.80
2022-11-03T16:27:29.440Z,4.68
2022-11-03T16:29:59.896Z,4.58
2022-11-03T16:32:30.633Z,4.65
2022-11-03T16:35:00.960Z,4.48
2022-11-03T16:37:31.429Z,4.35
2022-11-03T16:40:02.018Z,4.32
2022-11-03T16:42:38.710Z,4.23
2022-11-03T16:45:18.039Z,4.18
2022-11-03T16:47:52.272Z,4.26
2022-11-03T16:50:23.800Z,4.20
2022-11-03T16:52:57.783Z,4.03
2022-11-03T16:55:28.864Z,3.99
2022-11-03T16:58:02.860Z,3.89
2022-11-03T17:00:34.496Z,3.79
2022-11-03T17:03:06.249Z,3.71
2022-11-03T17:05:36.858Z,3.73
2022-11-03T17:08:25.642Z,3.75
2022-11-03T17:10:59.823Z,3.76
2022-11-03T17:13:33.247Z,3.58
2022-11-03T17:16:04.523Z,3.56
2022-11-03T17:18:37.039Z,3.55
2022-11-03T17:21:08.061Z,3.52
2022-11-03T17:23:40.836Z,3.58
2022-11-03T17:26:12.363Z,3.62
2022-11-03T17:28:44.697Z,3.60
2022-11-03T17:31:14.918Z,3.61
2022-11-03T17:33:45.397Z,3.23
2022-11-03T17:36:15.419Z,3.17
2022-11-03T17:38:45.949Z,3.08
2022-11-03T17:41:18.898Z,3.14
2022-11-03T17:43:52.769Z,3.26
2022-11-03T17:46:23.197Z,3.30
2022-11-03T17:48:53.680Z,3.30
2022-11-03T17:51:23.856Z,3.08
2022-11-03T17:53:54.226Z,2.89
2022-11-03T17:56:30.784Z,2.90
2022-11-03T17:59:03.633Z,2.84
2022-11-03T18:01:33.765Z,2.83
2022-11-03T18:04:04.721Z,2.70
2022-11-03T18:06:34.832Z,2.59
2022-11-03T18:09:05.771Z,2.55
2022-11-03T18:11:55.463Z,2.52
2022-11-03T18:14:30.296Z,2.57
2022-11-03T18:17:00.679Z,2.52
2022-11-03T18:19:32.621Z,2.50
2022-11-03T18:22:02.760Z,2.48
2022-11-03T18:24:33.403Z,2.34
2022-11-03T18:27:03.531Z,2.17
2022-11-03T18:29:35.491Z,2.16
2022-11-03T18:32:05.640Z,2.28
2022-11-03T18:34:37.063Z,2.25
2022-11-03T18:37:07.299Z,2.29
2022-11-03T18:39:38.390Z,2.26
2022-11-03T18:42:15.602Z,2.11
2022-11-03T18:44:49.440Z,2.09
2022-11-03T18:47:19.541Z,2.04
2022-11-03T18:49:50.087Z,1.94
2022-11-03T18:52:20.844Z,1.84
2022-11-03T18:54:52.541Z,1.84
2022-11-03T18:57:26.720Z,1.84
2022-11-03T18:59:58.693Z,1.98
2022-11-03T19:02:28.638Z,1.89
2022-11-03T19:05:01.358Z,1.67
2022-11-03T19:07:40.364Z,1.59
2022-11-03T19:10:16.599Z,1.65
2022-11-03T19:12:48.109Z,1.71
2022-11-03T19:15:26.596Z,1.76
2022-11-03T19:18:01.247Z,1.72
2022-11-03T19:20:36.091Z,1.54
2022-11-03T19:23:07.877Z,1.43
2022-11-03T19:25:46.028Z,1.45
2022-11-03T19:28:22.809Z,1.54
2022-11-03T19:30:57.857Z,1.45
2022-11-03T19:33:31.207Z,1.27
2022-11-03T19:36:02.233Z,1.31
2022-11-03T19:38:32.800Z,1.25
2022-11-03T19:41:20.616Z,1.17
2022-11-03T19:43:50.821Z,1.22
2022-11-03T19:46:22.810Z,1.22
2022-11-03T19:48:53.052Z,1.10
2022-11-03T19:51:23.520Z,1.10
2022-11-03T19:53:53.979Z,1.02
2022-11-03T19:56:25.703Z,1.03
2022-11-03T19:58:55.741Z,1.16
2022-11-03T20:01:28.662Z,1.07
2022-11-03T20:03:58.775Z,0.88
2022-11-03T20:06:29.665Z,0.85
2022-11-03T20:08:59.768Z,0.89
2022-11-03T20:11:30.186Z,0.95
2022-11-03T20:14:00.269Z,0.84
2022-11-03T20:16:33.090Z,0.80
2022-11-03T20:19:03.650Z,0.87
2022-11-03T20:21:34.554Z,0.81
2022-11-03T20:24:06.161Z,0.72
2022-11-03T20:26:36.861Z,0.80
2022-11-03T20:29:13.122Z,0.79
2022-11-03T20:31:46.509Z,0.81
2022-11-03T20:34:17.301Z,0.86
2022-11-03T20:36:48.296Z,0.81
2022-11-03T20:39:20.652Z,0.70
2022-11-03T20:42:01.799Z,0.59
2022-11-03T20:44:38.176Z,0.45
2022-11-03T20:47:16.150Z,0.41
2022-11-03T20:49:46.243Z,0.43
2022-11-03T20:52:33.276Z,0.36
2022-11-03T20:55:18.733Z,0.36
2022-11-03T20:57:52.715Z,0.40
2022-11-03T21:00:25.540Z,0.34
2022-11-03T21:02:57.909Z,0.26
2022-11-03T21:05:29.832Z,0.16
2022-11-03T21:08:00.230Z,0.13
2022-11-03T21:10:30.371Z,0.22
2022-11-03T21:13:02.141Z,0.35
2022-11-03T21:16:18.376Z,0.40
2022-11-03T21:18:58.890Z,0.19
2022-11-03T21:21:28.880Z,0.10
2022-11-03T21:23:59.413Z,0.16
2022-11-03T21:26:30.761Z,0.25
2022-11-03T21:29:02.043Z,0.12
2022-11-03T21:31:32.214Z,0.09
2022-11-03T21:34:05.306Z,0.02
2022-11-03T21:36:35.391Z,0.02
2022-11-03T21:39:05.771Z,0.11
2022-11-03T21:41:52.790Z,0.19
2022-11-03T21:44:24.822Z,0.24
2022-11-03T21:46:54.525Z,0.19
2022-11-03T21:49:44.286Z,0.16
2022-11-03T21:52:14.999Z,0.11
2022-11-03T21:54:46.095Z,0.06
2022-11-03T21:57:16.726Z,0.05
2022-11-03T21:59:47.469Z,0.09
2022-11-03T22:02:17.730Z,0.13
2022-11-03T22:04:50.303Z,0.15
2022-11-03T22:07:20.332Z,0.15
2022-11-03T22:09:50.670Z,0.14
2022-11-03T22:12:20.773Z,0.11
2022-11-03T22:15:08.370Z,0.09
2022-11-03T22:17:38.413Z,0.01
2022-11-03T22:20:28.424Z,-0.06
2022-11-03T22:23:18.564Z,-0.15
2022-11-03T22:26:06.734Z,-0.20
2022-11-03T22:28:36.694Z,-0.22
2022-11-03T22:31:24.591Z,-0.25
2022-11-03T22:34:12.796Z,-0.22
2022-11-03T22:36:44.524Z,-0.19
2022-11-03T22:39:32.813Z,-0.16
2022-11-03T22:42:19.483Z,-0.24
2022-11-03T22:45:05.862Z,-0.30
2022-11-03T22:47:36.154Z,-0.31
2022-11-03T22:50:06.533Z,-0.37
2022-11-03T22:52:38.284Z,-0.45
2022-11-03T22:55:07.695Z,-0.54
2022-11-03T22:57:38.095Z,-0.57
2022-11-03T23:00:08.953Z,-0.59
2022-11-03T23:02:39.261Z,-0.68
2022-11-03T23:05:09.984Z,-0.74
2022-11-03T23:07:41.920Z,-0.80
2022-11-03T23:10:12.444Z,-0.74
2022-11-03T23:12:42.689Z,-0.74
2022-11-03T23:15:30.033Z,-0.80
2022-11-03T23:18:17.932Z,-0.83
2022-11-03T23:21:05.483Z,-0.86
2022-11-03T23:23:55.595Z,-0.76
2022-11-03T23:26:27.564Z,-0.85
2022-11-03T23:28:58.003Z,-0.89
2022-11-03T23:31:28.039Z,-0.89
2022-11-03T23:34:00.388Z,-0.90
2022-11-03T23:36:31.123Z,-0.85
2022-11-03T23:39:03.713Z,-0.80
2022-11-03T23:41:34.015Z,-0.79
2022-11-03T23:44:04.510Z,-0.78
2022-11-03T23:46:51.723Z,-0.79
2022-11-03T23:49:22.015Z,-0.77
2022-11-03T23:51:52.068Z,-0.76
2022-11-03T23:54:23.853Z,-0.76
2022-11-03T23:57:11.485Z,-0.86
2022-11-03T23:59:41.877Z,-0.92
